sensor_id;sensor_type;location;lat;lon;timestamp;P1;durP1;ratioP1;P2;durP2;ratioP2
52033;SDS011;38045;52.988;6.536;2023-07-31T00:00:40;3.80;;;3.30;;
52033;SDS011;38045;52.988;6.536;2023-07-31T00:03:06;6.65;;;3.72;;
52033;SDS011;38045;52.988;6.536;2023-07-31T00:05:32;3.67;;;3.25;;
52033;SDS011;38045;52.988;6.536;2023-07-31T00:07:57;6.38;;;4.43;;
52033;SDS011;38045;52.988;6.536;2023-07-31T00:10:23;3.55;;;3.25;;
52033;SDS011;38045;52.988;6.536;2023-07-31T00:12:48;5.70;;;4.25;;
52033;SDS011;38045;52.988;6.536;2023-07-31T00:15:14;6.78;;;4.38;;
52033;SDS011;38045;52.988;6.536;2023-07-31T00:17:40;5.90;;;3.45;;
52033;SDS011;38045;52.988;6.536;2023-07-31T00:20:06;5.22;;;4.10;;
52033;SDS011;38045;52.988;6.536;2023-07-31T00:22:32;4.63;;;4.13;;
52033;SDS011;38045;52.988;6.536;2023-07-31T00:24:57;5.03;;;4.63;;
52033;SDS011;38045;52.988;6.536;2023-07-31T00:27:24;5.68;;;3.40;;
52033;SDS011;38045;52.988;6.536;2023-07-31T00:29:50;4.10;;;3.55;;
52033;SDS011;38045;52.988;6.536;2023-07-31T00:32:16;4.15;;;3.38;;
52033;SDS011;38045;52.988;6.536;2023-07-31T00:34:41;8.05;;;4.97;;
52033;SDS011;38045;52.988;6.536;2023-07-31T00:37:07;5.13;;;4.35;;
52033;SDS011;38045;52.988;6.536;2023-07-31T00:39:33;4.88;;;3.67;;
52033;SDS011;38045;52.988;6.536;2023-07-31T00:41:59;5.00;;;3.92;;
52033;SDS011;38045;52.988;6.536;2023-07-31T00:44:25;5.18;;;3.25;;
52033;SDS011;38045;52.988;6.536;2023-07-31T00:46:51;4.93;;;3.85;;
52033;SDS011;38045;52.988;6.536;2023-07-31T00:49:17;2.85;;;2.65;;
52033;SDS011;38045;52.988;6.536;2023-07-31T00:51:43;4.40;;;4.10;;
52033;SDS011;38045;52.988;6.536;2023-07-31T00:54:08;4.57;;;4.13;;
52033;SDS011;38045;52.988;6.536;2023-07-31T00:56:35;4.43;;;3.97;;
52033;SDS011;38045;52.988;6.536;2023-07-31T00:59:01;3.63;;;3.38;;
52033;SDS011;38045;52.988;6.536;2023-07-31T01:01:27;3.10;;;2.88;;
52033;SDS011;38045;52.988;6.536;2023-07-31T01:03:53;4.90;;;3.97;;
52033;SDS011;38045;52.988;6.536;2023-07-31T01:11:57;4.05;;;2.92;;
52033;SDS011;38045;52.988;6.536;2023-07-31T01:14:27;2.08;;;1.90;;
52033;SDS011;38045;52.988;6.536;2023-07-31T01:16:52;2.35;;;2.22;;
52033;SDS011;38045;52.988;6.536;2023-07-31T01:19:20;1.60;;;1.50;;
52033;SDS011;38045;52.988;6.536;2023-07-31T01:27:48;0.73;;;0.73;;
52033;SDS011;38045;52.988;6.536;2023-07-31T01:30:25;2.90;;;1.73;;
52033;SDS011;38045;52.988;6.536;2023-07-31T01:32:56;1.75;;;1.65;;
52033;SDS011;38045;52.988;6.536;2023-07-31T01:35:23;0.77;;;0.77;;
52033;SDS011;38045;52.988;6.536;2023-07-31T01:37:52;1.05;;;0.95;;
52033;SDS011;38045;52.988;6.536;2023-07-31T01:40:19;0.70;;;0.70;;
52033;SDS011;38045;52.988;6.536;2023-07-31T01:42:44;1.90;;;1.15;;
52033;SDS011;38045;52.988;6.536;2023-07-31T01:45:10;1.25;;;0.70;;
52033;SDS011;38045;52.988;6.536;2023-07-31T01:47:36;0.40;;;0.40;;
52033;SDS011;38045;52.988;6.536;2023-07-31T01:50:01;0.50;;;0.45;;
52033;SDS011;38045;52.988;6.536;2023-07-31T01:52:27;1.88;;;0.77;;
52033;SDS011;38045;52.988;6.536;2023-07-31T01:54:53;0.88;;;0.65;;
52033;SDS011;38045;52.988;6.536;2023-07-31T01:57:19;0.70;;;0.70;;
52033;SDS011;38045;52.988;6.536;2023-07-31T01:59:44;2.17;;;1.42;;
52033;SDS011;38045;52.988;6.536;2023-07-31T02:02:10;0.80;;;0.77;;
52033;SDS011;38045;52.988;6.536;2023-07-31T02:04:36;3.33;;;0.68;;
52033;SDS011;38045;52.988;6.536;2023-07-31T02:07:03;0.68;;;0.68;;
52033;SDS011;38045;52.988;6.536;2023-07-31T02:09:29;1.50;;;0.47;;
52033;SDS011;38045;52.988;6.536;2023-07-31T02:11:54;0.52;;;0.52;;
52033;SDS011;38045;52.988;6.536;2023-07-31T02:14:20;1.95;;;0.70;;
52033;SDS011;38045;52.988;6.536;2023-07-31T02:16:46;1.88;;;0.73;;
52033;SDS011;38045;52.988;6.536;2023-07-31T02:19:11;0.47;;;0.45;;
52033;SDS011;38045;52.988;6.536;2023-07-31T02:21:37;3.00;;;0.50;;
52033;SDS011;38045;52.988;6.536;2023-07-31T02:24:02;0.77;;;0.77;;
52033;SDS011;38045;52.988;6.536;2023-07-31T02:26:28;0.75;;;0.75;;
52033;SDS011;38045;52.988;6.536;2023-07-31T02:28:54;0.32;;;0.32;;
52033;SDS011;38045;52.988;6.536;2023-07-31T02:31:19;1.27;;;1.17;;
52033;SDS011;38045;52.988;6.536;2023-07-31T02:33:45;2.17;;;0.73;;
52033;SDS011;38045;52.988;6.536;2023-07-31T02:36:11;1.08;;;0.57;;
52033;SDS011;38045;52.988;6.536;2023-07-31T02:38:36;3.65;;;0.80;;
52033;SDS011;38045;52.988;6.536;2023-07-31T02:41:02;0.55;;;0.50;;
52033;SDS011;38045;52.988;6.536;2023-07-31T02:43:27;1.70;;;1.15;;
52033;SDS011;38045;52.988;6.536;2023-07-31T02:45:53;0.68;;;0.50;;
52033;SDS011;38045;52.988;6.536;2023-07-31T02:48:19;0.55;;;0.55;;
52033;SDS011;38045;52.988;6.536;2023-07-31T02:50:45;0.90;;;0.75;;
52033;SDS011;38045;52.988;6.536;2023-07-31T02:53:12;1.05;;;0.95;;
52033;SDS011;38045;52.988;6.536;2023-07-31T02:55:38;0.77;;;0.75;;
52033;SDS011;38045;52.988;6.536;2023-07-31T02:58:03;1.10;;;0.88;;
52033;SDS011;38045;52.988;6.536;2023-07-31T03:00:29;0.80;;;0.80;;
52033;SDS011;38045;52.988;6.536;2023-07-31T03:02:55;2.28;;;1.13;;
52033;SDS011;38045;52.988;6.536;2023-07-31T03:05:20;0.90;;;0.60;;
52033;SDS011;38045;52.988;6.536;2023-07-31T03:07:46;2.88;;;0.93;;
52033;SDS011;38045;52.988;6.536;2023-07-31T03:10:12;1.33;;;0.50;;
52033;SDS011;38045;52.988;6.536;2023-07-31T03:12:37;0.52;;;0.52;;
52033;SDS011;38045;52.988;6.536;2023-07-31T03:15:03;1.00;;;0.70;;
52033;SDS011;38045;52.988;6.536;2023-07-31T03:17:29;1.27;;;0.70;;
52033;SDS011;38045;52.988;6.536;2023-07-31T03:19:54;2.00;;;0.57;;
52033;SDS011;38045;52.988;6.536;2023-07-31T03:22:20;4.57;;;0.70;;
52033;SDS011;38045;52.988;6.536;2023-07-31T03:24:45;0.75;;;0.50;;
52033;SDS011;38045;52.988;6.536;2023-07-31T03:27:11;2.30;;;0.50;;
52033;SDS011;38045;52.988;6.536;2023-07-31T03:29:37;0.80;;;0.50;;
52033;SDS011;38045;52.988;6.536;2023-07-31T03:32:02;0.60;;;0.60;;
52033;SDS011;38045;52.988;6.536;2023-07-31T03:34:28;0.77;;;0.50;;
52033;SDS011;38045;52.988;6.536;2023-07-31T03:36:54;1.80;;;0.77;;
52033;SDS011;38045;52.988;6.536;2023-07-31T03:39:20;1.23;;;0.65;;
52033;SDS011;38045;52.988;6.536;2023-07-31T03:41:45;3.92;;;0.50;;
52033;SDS011;38045;52.988;6.536;2023-07-31T03:44:11;0.85;;;0.85;;
52033;SDS011;38045;52.988;6.536;2023-07-31T03:46:37;0.43;;;0.40;;
52033;SDS011;38045;52.988;6.536;2023-07-31T03:49:02;0.30;;;0.30;;
52033;SDS011;38045;52.988;6.536;2023-07-31T03:51:28;0.52;;;0.45;;
52033;SDS011;38045;52.988;6.536;2023-07-31T03:53:53;1.52;;;0.47;;
52033;SDS011;38045;52.988;6.536;2023-07-31T03:56:19;0.80;;;0.60;;
52033;SDS011;38045;52.988;6.536;2023-07-31T03:58:45;0.40;;;0.35;;
52033;SDS011;38045;52.988;6.536;2023-07-31T04:01:10;0.90;;;0.75;;
52033;SDS011;38045;52.988;6.536;2023-07-31T04:03:36;0.55;;;0.40;;
52033;SDS011;38045;52.988;6.536;2023-07-31T04:06:02;0.77;;;0.22;;
52033;SDS011;38045;52.988;6.536;2023-07-31T04:08:27;0.25;;;0.25;;
52033;SDS011;38045;52.988;6.536;2023-07-31T04:10:53;0.43;;;0.35;;
52033;SDS011;38045;52.988;6.536;2023-07-31T04:13:19;1.58;;;0.40;;
52033;SDS011;38045;52.988;6.536;2023-07-31T04:15:48;1.13;;;0.50;;
52033;SDS011;38045;52.988;6.536;2023-07-31T04:18:15;0.60;;;0.52;;
52033;SDS011;38045;52.988;6.536;2023-07-31T04:20:40;0.38;;;0.38;;
52033;SDS011;38045;52.988;6.536;2023-07-31T04:23:06;0.40;;;0.40;;
52033;SDS011;38045;52.988;6.536;2023-07-31T04:25:31;0.55;;;0.55;;
52033;SDS011;38045;52.988;6.536;2023-07-31T04:27:57;0.40;;;0.40;;
52033;SDS011;38045;52.988;6.536;2023-07-31T04:30:22;2.03;;;0.50;;
52033;SDS011;38045;52.988;6.536;2023-07-31T04:32:49;1.77;;;0.55;;
52033;SDS011;38045;52.988;6.536;2023-07-31T04:35:15;2.42;;;0.80;;
52033;SDS011;38045;52.988;6.536;2023-07-31T04:37:40;0.63;;;0.60;;
52033;SDS011;38045;52.988;6.536;2023-07-31T04:40:06;1.33;;;1.13;;
52033;SDS011;38045;52.988;6.536;2023-07-31T04:42:33;1.45;;;0.80;;
52033;SDS011;38045;52.988;6.536;2023-07-31T04:44:59;0.98;;;0.63;;
52033;SDS011;38045;52.988;6.536;2023-07-31T04:47:25;1.20;;;1.10;;
52033;SDS011;38045;52.988;6.536;2023-07-31T04:49:50;0.60;;;0.60;;
52033;SDS011;38045;52.988;6.536;2023-07-31T04:52:16;1.85;;;0.60;;
52033;SDS011;38045;52.988;6.536;2023-07-31T04:54:42;5.40;;;1.63;;
52033;SDS011;38045;52.988;6.536;2023-07-31T04:57:07;2.92;;;1.15;;
52033;SDS011;38045;52.988;6.536;2023-07-31T04:59:33;1.33;;;0.50;;
52033;SDS011;38045;52.988;6.536;2023-07-31T05:01:58;2.47;;;0.90;;
52033;SDS011;38045;52.988;6.536;2023-07-31T05:04:24;4.53;;;2.83;;
52033;SDS011;38045;52.988;6.536;2023-07-31T05:06:49;4.22;;;1.77;;
52033;SDS011;38045;52.988;6.536;2023-07-31T05:09:15;2.38;;;1.55;;
52033;SDS011;38045;52.988;6.536;2023-07-31T05:11:41;2.67;;;2.47;;
52033;SDS011;38045;52.988;6.536;2023-07-31T05:14:08;4.72;;;1.77;;
52033;SDS011;38045;52.988;6.536;2023-07-31T05:16:34;2.53;;;2.30;;
52033;SDS011;38045;52.988;6.536;2023-07-31T05:18:59;7.80;;;2.67;;
52033;SDS011;38045;52.988;6.536;2023-07-31T05:21:25;7.28;;;2.83;;
52033;SDS011;38045;52.988;6.536;2023-07-31T05:23:50;4.05;;;2.65;;
52033;SDS011;38045;52.988;6.536;2023-07-31T05:26:16;13.85;;;4.95;;
52033;SDS011;38045;52.988;6.536;2023-07-31T05:28:42;10.95;;;5.15;;
52033;SDS011;38045;52.988;6.536;2023-07-31T05:31:08;13.23;;;5.55;;
52033;SDS011;38045;52.988;6.536;2023-07-31T05:33:33;9.88;;;5.90;;
52033;SDS011;38045;52.988;6.536;2023-07-31T05:35:59;12.55;;;5.85;;
52033;SDS011;38045;52.988;6.536;2023-07-31T05:38:25;14.68;;;6.95;;
52033;SDS011;38045;52.988;6.536;2023-07-31T05:40:51;14.70;;;6.43;;
52033;SDS011;38045;52.988;6.536;2023-07-31T05:43:16;14.52;;;6.93;;
52033;SDS011;38045;52.988;6.536;2023-07-31T05:45:42;22.63;;;8.43;;
52033;SDS011;38045;52.988;6.536;2023-07-31T05:48:08;15.55;;;7.68;;
52033;SDS011;38045;52.988;6.536;2023-07-31T05:50:33;16.92;;;7.35;;
52033;SDS011;38045;52.988;6.536;2023-07-31T05:52:59;22.45;;;8.80;;
52033;SDS011;38045;52.988;6.536;2023-07-31T05:55:24;15.23;;;9.68;;
52033;SDS011;38045;52.988;6.536;2023-07-31T05:57:53;15.47;;;6.40;;
52033;SDS011;38045;52.988;6.536;2023-07-31T06:00:19;18.08;;;8.45;;
52033;SDS011;38045;52.988;6.536;2023-07-31T06:02:45;23.75;;;9.13;;
52033;SDS011;38045;52.988;6.536;2023-07-31T06:05:12;18.15;;;8.73;;
52033;SDS011;38045;52.988;6.536;2023-07-31T06:07:38;25.92;;;10.48;;
52033;SDS011;38045;52.988;6.536;2023-07-31T06:10:03;13.93;;;6.63;;
52033;SDS011;38045;52.988;6.536;2023-07-31T06:12:34;15.80;;;7.78;;
52033;SDS011;38045;52.988;6.536;2023-07-31T06:15:00;19.33;;;8.45;;
52033;SDS011;38045;52.988;6.536;2023-07-31T06:17:27;25.02;;;9.07;;
52033;SDS011;38045;52.988;6.536;2023-07-31T06:19:53;33.05;;;10.55;;
52033;SDS011;38045;52.988;6.536;2023-07-31T06:22:18;19.90;;;8.80;;
52033;SDS011;38045;52.988;6.536;2023-07-31T06:24:44;17.67;;;8.88;;
52033;SDS011;38045;52.988;6.536;2023-07-31T06:27:10;15.95;;;9.20;;
52033;SDS011;38045;52.988;6.536;2023-07-31T06:29:36;12.82;;;5.18;;
52033;SDS011;38045;52.988;6.536;2023-07-31T06:32:02;19.40;;;7.40;;
52033;SDS011;38045;52.988;6.536;2023-07-31T06:34:28;15.10;;;6.57;;
52033;SDS011;38045;52.988;6.536;2023-07-31T06:36:55;14.63;;;7.38;;
52033;SDS011;38045;52.988;6.536;2023-07-31T06:39:21;11.85;;;6.57;;
52033;SDS011;38045;52.988;6.536;2023-07-31T06:41:46;18.40;;;8.73;;
52033;SDS011;38045;52.988;6.536;2023-07-31T06:44:12;8.27;;;5.43;;
52033;SDS011;38045;52.988;6.536;2023-07-31T06:46:38;18.48;;;7.00;;
52033;SDS011;38045;52.988;6.536;2023-07-31T06:49:03;11.57;;;6.80;;
52033;SDS011;38045;52.988;6.536;2023-07-31T06:51:29;16.13;;;7.40;;
52033;SDS011;38045;52.988;6.536;2023-07-31T06:53:56;17.70;;;6.93;;
52033;SDS011;38045;52.988;6.536;2023-07-31T06:56:25;21.02;;;9.00;;
52033;SDS011;38045;52.988;6.536;2023-07-31T06:58:51;18.10;;;8.25;;
52033;SDS011;38045;52.988;6.536;2023-07-31T07:01:16;20.60;;;7.28;;
52033;SDS011;38045;52.988;6.536;2023-07-31T07:03:42;22.02;;;7.53;;
52033;SDS011;38045;52.988;6.536;2023-07-31T07:06:08;16.02;;;8.30;;
52033;SDS011;38045;52.988;6.536;2023-07-31T07:08:33;22.08;;;8.38;;
52033;SDS011;38045;52.988;6.536;2023-07-31T07:10:59;12.23;;;5.82;;
52033;SDS011;38045;52.988;6.536;2023-07-31T07:13:24;25.55;;;9.13;;
52033;SDS011;38045;52.988;6.536;2023-07-31T07:15:50;15.57;;;7.30;;
52033;SDS011;38045;52.988;6.536;2023-07-31T07:18:16;15.00;;;6.20;;
52033;SDS011;38045;52.988;6.536;2023-07-31T07:20:46;7.32;;;5.38;;
52033;SDS011;38045;52.988;6.536;2023-07-31T07:23:15;12.25;;;5.45;;
52033;SDS011;38045;52.988;6.536;2023-07-31T07:25:42;14.35;;;6.32;;
52033;SDS011;38045;52.988;6.536;2023-07-31T07:28:08;6.43;;;4.63;;
52033;SDS011;38045;52.988;6.536;2023-07-31T07:30:34;9.95;;;4.63;;
52033;SDS011;38045;52.988;6.536;2023-07-31T07:33:00;6.85;;;4.78;;
52033;SDS011;38045;52.988;6.536;2023-07-31T07:35:25;5.85;;;3.58;;
52033;SDS011;38045;52.988;6.536;2023-07-31T07:37:51;7.78;;;4.32;;
52033;SDS011;38045;52.988;6.536;2023-07-31T07:40:16;9.35;;;4.38;;
52033;SDS011;38045;52.988;6.536;2023-07-31T07:42:42;6.30;;;3.00;;
52033;SDS011;38045;52.988;6.536;2023-07-31T07:45:08;5.68;;;2.70;;
52033;SDS011;38045;52.988;6.536;2023-07-31T07:47:34;3.13;;;2.38;;
52033;SDS011;38045;52.988;6.536;2023-07-31T07:49:59;6.25;;;4.60;;
52033;SDS011;38045;52.988;6.536;2023-07-31T07:52:25;2.28;;;2.08;;
52033;SDS011;38045;52.988;6.536;2023-07-31T07:54:51;4.18;;;2.88;;
52033;SDS011;38045;52.988;6.536;2023-07-31T07:57:16;3.85;;;3.00;;
52033;SDS011;38045;52.988;6.536;2023-07-31T07:59:42;5.10;;;2.55;;
52033;SDS011;38045;52.988;6.536;2023-07-31T08:02:07;6.72;;;3.35;;
52033;SDS011;38045;52.988;6.536;2023-07-31T08:04:33;3.58;;;3.10;;
52033;SDS011;38045;52.988;6.536;2023-07-31T08:06:59;9.30;;;3.60;;
52033;SDS011;38045;52.988;6.536;2023-07-31T08:09:24;4.85;;;2.90;;
52033;SDS011;38045;52.988;6.536;2023-07-31T08:11:50;3.63;;;2.25;;
52033;SDS011;38045;52.988;6.536;2023-07-31T08:14:15;3.42;;;2.35;;
52033;SDS011;38045;52.988;6.536;2023-07-31T08:16:41;3.28;;;2.45;;
52033;SDS011;38045;52.988;6.536;2023-07-31T08:19:07;2.72;;;2.53;;
52033;SDS011;38045;52.988;6.536;2023-07-31T08:21:32;3.15;;;1.25;;
52033;SDS011;38045;52.988;6.536;2023-07-31T08:23:58;5.30;;;1.45;;
52033;SDS011;38045;52.988;6.536;2023-07-31T08:26:24;1.42;;;1.20;;
52033;SDS011;38045;52.988;6.536;2023-07-31T08:28:49;2.67;;;1.70;;
52033;SDS011;38045;52.988;6.536;2023-07-31T08:31:15;3.53;;;2.50;;
52033;SDS011;38045;52.988;6.536;2023-07-31T08:33:40;1.83;;;1.13;;
52033;SDS011;38045;52.988;6.536;2023-07-31T08:36:06;2.95;;;1.70;;
52033;SDS011;38045;52.988;6.536;2023-07-31T08:38:32;1.90;;;1.70;;
52033;SDS011;38045;52.988;6.536;2023-07-31T08:40:57;2.00;;;1.42;;
52033;SDS011;38045;52.988;6.536;2023-07-31T08:43:26;2.30;;;2.10;;
52033;SDS011;38045;52.988;6.536;2023-07-31T08:45:53;1.92;;;1.33;;
52033;SDS011;38045;52.988;6.536;2023-07-31T08:48:20;1.70;;;1.33;;
52033;SDS011;38045;52.988;6.536;2023-07-31T08:50:47;2.17;;;1.97;;
52033;SDS011;38045;52.988;6.536;2023-07-31T08:53:13;2.22;;;1.40;;
52033;SDS011;38045;52.988;6.536;2023-07-31T08:55:38;1.48;;;1.38;;
52033;SDS011;38045;52.988;6.536;2023-07-31T08:58:05;2.75;;;1.52;;
52033;SDS011;38045;52.988;6.536;2023-07-31T09:00:32;1.48;;;0.93;;
52033;SDS011;38045;52.988;6.536;2023-07-31T09:03:19;3.67;;;1.30;;
52033;SDS011;38045;52.988;6.536;2023-07-31T09:05:44;1.67;;;1.15;;
52033;SDS011;38045;52.988;6.536;2023-07-31T09:08:14;1.63;;;0.93;;
52033;SDS011;38045;52.988;6.536;2023-07-31T09:10:45;5.53;;;1.33;;
52033;SDS011;38045;52.988;6.536;2023-07-31T09:13:14;2.97;;;1.23;;
52033;SDS011;38045;52.988;6.536;2023-07-31T09:15:40;0.70;;;0.70;;
52033;SDS011;38045;52.988;6.536;2023-07-31T09:18:08;1.10;;;0.80;;
52033;SDS011;38045;52.988;6.536;2023-07-31T09:20:35;2.08;;;0.70;;
52033;SDS011;38045;52.988;6.536;2023-07-31T09:23:09;1.70;;;0.57;;
52033;SDS011;38045;52.988;6.536;2023-07-31T09:25:39;1.90;;;0.75;;
52033;SDS011;38045;52.988;6.536;2023-07-31T09:28:08;0.55;;;0.55;;
52033;SDS011;38045;52.988;6.536;2023-07-31T09:30:51;0.95;;;0.80;;
52033;SDS011;38045;52.988;6.536;2023-07-31T09:33:20;0.40;;;0.40;;
52033;SDS011;38045;52.988;6.536;2023-07-31T09:35:46;1.65;;;0.90;;
52033;SDS011;38045;52.988;6.536;2023-07-31T09:38:13;2.10;;;0.80;;
52033;SDS011;38045;52.988;6.536;2023-07-31T09:40:40;0.98;;;0.50;;
52033;SDS011;38045;52.988;6.536;2023-07-31T09:43:08;1.05;;;0.68;;
52033;SDS011;38045;52.988;6.536;2023-07-31T09:45:42;0.87;;;0.70;;
52033;SDS011;38045;52.988;6.536;2023-07-31T09:48:10;1.88;;;0.70;;
52033;SDS011;38045;52.988;6.536;2023-07-31T09:50:38;1.23;;;0.70;;
52033;SDS011;38045;52.988;6.536;2023-07-31T09:53:05;0.90;;;0.85;;
52033;SDS011;38045;52.988;6.536;2023-07-31T09:55:31;2.15;;;0.30;;
52033;SDS011;38045;52.988;6.536;2023-07-31T09:57:58;0.43;;;0.43;;
52033;SDS011;38045;52.988;6.536;2023-07-31T10:00:24;0.50;;;0.50;;
52033;SDS011;38045;52.988;6.536;2023-07-31T10:02:53;1.27;;;0.65;;
52033;SDS011;38045;52.988;6.536;2023-07-31T10:05:22;0.47;;;0.45;;
52033;SDS011;38045;52.988;6.536;2023-07-31T10:07:52;1.88;;;0.73;;
52033;SDS011;38045;52.988;6.536;2023-07-31T10:10:20;0.43;;;0.43;;
52033;SDS011;38045;52.988;6.536;2023-07-31T10:12:48;1.42;;;0.47;;
52033;SDS011;38045;52.988;6.536;2023-07-31T10:15:15;0.73;;;0.73;;
52033;SDS011;38045;52.988;6.536;2023-07-31T10:17:41;0.50;;;0.50;;
52033;SDS011;38045;52.988;6.536;2023-07-31T10:20:07;0.68;;;0.63;;
52033;SDS011;38045;52.988;6.536;2023-07-31T10:22:35;0.47;;;0.45;;
52033;SDS011;38045;52.988;6.536;2023-07-31T10:25:01;1.17;;;0.50;;
52033;SDS011;38045;52.988;6.536;2023-07-31T10:27:26;0.60;;;0.60;;
52033;SDS011;38045;52.988;6.536;2023-07-31T10:29:53;0.30;;;0.30;;
52033;SDS011;38045;52.988;6.536;2023-07-31T10:32:20;1.40;;;0.20;;
52033;SDS011;38045;52.988;6.536;2023-07-31T10:34:47;0.43;;;0.43;;
52033;SDS011;38045;52.988;6.536;2023-07-31T10:42:29;0.50;;;0.50;;
52033;SDS011;38045;52.988;6.536;2023-07-31T10:44:57;0.22;;;0.20;;
52033;SDS011;38045;52.988;6.536;2023-07-31T10:47:24;0.20;;;0.20;;
52033;SDS011;38045;52.988;6.536;2023-07-31T10:49:49;0.20;;;0.20;;
52033;SDS011;38045;52.988;6.536;2023-07-31T10:52:19;0.22;;;0.22;;
52033;SDS011;38045;52.988;6.536;2023-07-31T10:54:49;0.30;;;0.30;;
52033;SDS011;38045;52.988;6.536;2023-07-31T10:57:21;1.17;;;0.55;;
52033;SDS011;38045;52.988;6.536;2023-07-31T10:59:50;1.35;;;0.32;;
52033;SDS011;38045;52.988;6.536;2023-07-31T11:02:26;0.88;;;0.88;;
52033;SDS011;38045;52.988;6.536;2023-07-31T11:05:10;1.85;;;0.70;;
52033;SDS011;38045;52.988;6.536;2023-07-31T11:07:48;1.70;;;0.32;;
52033;SDS011;38045;52.988;6.536;2023-07-31T11:10:17;2.63;;;0.97;;
52033;SDS011;38045;52.988;6.536;2023-07-31T11:12:44;3.67;;;1.02;;
52033;SDS011;38045;52.988;6.536;2023-07-31T11:15:11;2.35;;;1.00;;
52033;SDS011;38045;52.988;6.536;2023-07-31T11:17:40;0.95;;;0.60;;
52033;SDS011;38045;52.988;6.536;2023-07-31T11:20:06;0.30;;;0.30;;
52033;SDS011;38045;52.988;6.536;2023-07-31T11:22:34;1.38;;;0.20;;
52033;SDS011;38045;52.988;6.536;2023-07-31T11:25:01;0.43;;;0.43;;
52033;SDS011;38045;52.988;6.536;2023-07-31T11:30:02;0.50;;;0.50;;
52033;SDS011;38045;52.988;6.536;2023-07-31T11:32:28;0.47;;;0.40;;
52033;SDS011;38045;52.988;6.536;2023-07-31T11:34:54;0.20;;;0.20;;
52033;SDS011;38045;52.988;6.536;2023-07-31T11:37:20;0.30;;;0.30;;
52033;SDS011;38045;52.988;6.536;2023-07-31T11:40:01;0.82;;;0.30;;
52033;SDS011;38045;52.988;6.536;2023-07-31T11:42:27;0.45;;;0.30;;
52033;SDS011;38045;52.988;6.536;2023-07-31T11:44:52;0.52;;;0.15;;
52033;SDS011;38045;52.988;6.536;2023-07-31T11:47:18;0.90;;;0.20;;
52033;SDS011;38045;52.988;6.536;2023-07-31T11:49:45;0.22;;;0.22;;
52033;SDS011;38045;52.988;6.536;2023-07-31T11:52:10;0.10;;;0.10;;
52033;SDS011;38045;52.988;6.536;2023-07-31T11:54:37;0.30;;;0.30;;
52033;SDS011;38045;52.988;6.536;2023-07-31T11:57:03;0.35;;;0.20;;
52033;SDS011;38045;52.988;6.536;2023-07-31T11:59:30;0.35;;;0.30;;
52033;SDS011;38045;52.988;6.536;2023-07-31T12:01:56;0.35;;;0.32;;
52033;SDS011;38045;52.988;6.536;2023-07-31T12:04:21;0.10;;;0.10;;
52033;SDS011;38045;52.988;6.536;2023-07-31T12:06:48;0.20;;;0.20;;
52033;SDS011;38045;52.988;6.536;2023-07-31T12:09:15;0.30;;;0.30;;
52033;SDS011;38045;52.988;6.536;2023-07-31T12:11:44;0.43;;;0.20;;
52033;SDS011;38045;52.988;6.536;2023-07-31T12:14:19;0.50;;;0.50;;
52033;SDS011;38045;52.988;6.536;2023-07-31T12:16:48;1.33;;;0.57;;
52033;SDS011;38045;52.988;6.536;2023-07-31T12:19:22;0.70;;;0.70;;
52033;SDS011;38045;52.988;6.536;2023-07-31T12:21:51;1.52;;;0.50;;
52033;SDS011;38045;52.988;6.536;2023-07-31T12:24:18;3.33;;;0.65;;
52033;SDS011;38045;52.988;6.536;2023-07-31T12:26:45;0.50;;;0.50;;
52033;SDS011;38045;52.988;6.536;2023-07-31T12:29:11;1.20;;;0.60;;
52033;SDS011;38045;52.988;6.536;2023-07-31T12:31:37;2.72;;;0.93;;
52033;SDS011;38045;52.988;6.536;2023-07-31T12:34:14;1.80;;;1.05;;
52033;SDS011;38045;52.988;6.536;2023-07-31T12:36:43;0.88;;;0.75;;
52033;SDS011;38045;52.988;6.536;2023-07-31T12:39:09;1.27;;;0.60;;
52033;SDS011;38045;52.988;6.536;2023-07-31T12:41:35;0.65;;;0.65;;
52033;SDS011;38045;52.988;6.536;2023-07-31T12:44:01;5.65;;;0.90;;
52033;SDS011;38045;52.988;6.536;2023-07-31T12:46:28;0.75;;;0.75;;
52033;SDS011;38045;52.988;6.536;2023-07-31T12:48:53;1.05;;;0.65;;
52033;SDS011;38045;52.988;6.536;2023-07-31T12:51:19;2.85;;;0.70;;
52033;SDS011;38045;52.988;6.536;2023-07-31T12:53:46;0.93;;;0.93;;
52033;SDS011;38045;52.988;6.536;2023-07-31T12:56:11;2.88;;;1.33;;
52033;SDS011;38045;52.988;6.536;2023-07-31T12:58:37;1.40;;;1.30;;
52033;SDS011;38045;52.988;6.536;2023-07-31T13:01:02;2.40;;;1.10;;
52033;SDS011;38045;52.988;6.536;2023-07-31T13:03:28;1.23;;;0.88;;
52033;SDS011;38045;52.988;6.536;2023-07-31T13:05:54;5.03;;;2.35;;
52033;SDS011;38045;52.988;6.536;2023-07-31T13:08:20;6.13;;;1.00;;
52033;SDS011;38045;52.988;6.536;2023-07-31T13:10:45;3.95;;;2.15;;
52033;SDS011;38045;52.988;6.536;2023-07-31T13:13:11;2.72;;;2.10;;
52033;SDS011;38045;52.988;6.536;2023-07-31T13:15:37;2.45;;;2.17;;
52033;SDS011;38045;52.988;6.536;2023-07-31T13:18:02;7.03;;;3.28;;
52033;SDS011;38045;52.988;6.536;2023-07-31T13:20:28;5.75;;;2.17;;
52033;SDS011;38045;52.988;6.536;2023-07-31T13:22:54;6.18;;;3.47;;
52033;SDS011;38045;52.988;6.536;2023-07-31T13:25:19;2.10;;;1.88;;
52033;SDS011;38045;52.988;6.536;2023-07-31T13:27:45;3.60;;;2.65;;
52033;SDS011;38045;52.988;6.536;2023-07-31T13:30:10;5.75;;;2.53;;
52033;SDS011;38045;52.988;6.536;2023-07-31T13:32:36;6.85;;;3.15;;
52033;SDS011;38045;52.988;6.536;2023-07-31T13:35:04;5.13;;;3.30;;
52033;SDS011;38045;52.988;6.536;2023-07-31T13:37:31;3.80;;;2.45;;
52033;SDS011;38045;52.988;6.536;2023-07-31T13:39:56;4.03;;;2.92;;
52033;SDS011;38045;52.988;6.536;2023-07-31T13:42:22;3.92;;;3.28;;
52033;SDS011;38045;52.988;6.536;2023-07-31T13:44:47;4.07;;;2.83;;
52033;SDS011;38045;52.988;6.536;2023-07-31T13:47:13;9.40;;;3.22;;
52033;SDS011;38045;52.988;6.536;2023-07-31T13:49:38;11.57;;;4.78;;
52033;SDS011;38045;52.988;6.536;2023-07-31T13:52:04;11.10;;;3.45;;
52033;SDS011;38045;52.988;6.536;2023-07-31T13:54:30;5.82;;;3.70;;
52033;SDS011;38045;52.988;6.536;2023-07-31T13:56:56;5.07;;;3.08;;
52033;SDS011;38045;52.988;6.536;2023-07-31T13:59:21;5.72;;;2.38;;
52033;SDS011;38045;52.988;6.536;2023-07-31T14:01:47;10.00;;;3.30;;
52033;SDS011;38045;52.988;6.536;2023-07-31T14:04:13;11.05;;;4.63;;
52033;SDS011;38045;52.988;6.536;2023-07-31T14:06:39;4.78;;;2.63;;
52033;SDS011;38045;52.988;6.536;2023-07-31T14:09:04;5.40;;;3.15;;
52033;SDS011;38045;52.988;6.536;2023-07-31T14:11:31;7.90;;;4.22;;
52033;SDS011;38045;52.988;6.536;2023-07-31T14:13:57;8.35;;;4.00;;
52033;SDS011;38045;52.988;6.536;2023-07-31T14:16:22;6.65;;;3.45;;
52033;SDS011;38045;52.988;6.536;2023-07-31T14:18:48;5.70;;;3.08;;
52033;SDS011;38045;52.988;6.536;2023-07-31T14:21:14;6.70;;;1.70;;
52033;SDS011;38045;52.988;6.536;2023-07-31T14:23:40;6.30;;;3.05;;
52033;SDS011;38045;52.988;6.536;2023-07-31T14:26:06;8.55;;;3.40;;
52033;SDS011;38045;52.988;6.536;2023-07-31T14:28:32;3.55;;;2.55;;
52033;SDS011;38045;52.988;6.536;2023-07-31T14:30:58;4.65;;;2.67;;
52033;SDS011;38045;52.988;6.536;2023-07-31T14:33:23;6.50;;;3.67;;
52033;SDS011;38045;52.988;6.536;2023-07-31T14:35:49;5.28;;;3.00;;
52033;SDS011;38045;52.988;6.536;2023-07-31T14:38:15;10.57;;;4.20;;
52033;SDS011;38045;52.988;6.536;2023-07-31T14:40:41;8.65;;;3.35;;
52033;SDS011;38045;52.988;6.536;2023-07-31T14:43:06;11.05;;;4.57;;
52033;SDS011;38045;52.988;6.536;2023-07-31T14:45:32;10.77;;;3.08;;
52033;SDS011;38045;52.988;6.536;2023-07-31T14:47:58;7.10;;;3.55;;
52033;SDS011;38045;52.988;6.536;2023-07-31T14:50:23;7.65;;;3.35;;
52033;SDS011;38045;52.988;6.536;2023-07-31T14:52:50;9.27;;;3.72;;
52033;SDS011;38045;52.988;6.536;2023-07-31T14:55:15;6.18;;;2.67;;
52033;SDS011;38045;52.988;6.536;2023-07-31T14:57:41;4.93;;;2.30;;
52033;SDS011;38045;52.988;6.536;2023-07-31T15:00:07;8.00;;;3.63;;